createdAt,value
2023-03-02T00:00:45.696Z,45.58
2023-03-02T00:03:13.726Z,46.10
2023-03-02T00:05:40.622Z,47.22
2023-03-02T00:08:08.946Z,42.10
2023-03-02T00:10:36.350Z,48.20
2023-03-02T00:13:15.049Z,42.95
2023-03-02T00:15:41.597Z,44.60
2023-03-02T00:18:08.153Z,47.13
2023-03-02T00:20:34.906Z,48.97
2023-03-02T00:23:01.518Z,43.38
2023-03-02T00:25:28.111Z,45.38
2023-03-02T00:27:54.753Z,45.92
2023-03-02T00:30:22.013Z,48.50
2023-03-02T00:32:51.675Z,45.90
2023-03-02T00:35:18.510Z,48.00
2023-03-02T00:37:45.068Z,44.05
2023-03-02T00:40:12.209Z,44.72
2023-03-02T00:42:38.772Z,45.63
2023-03-02T00:45:05.987Z,43.90
2023-03-02T00:47:36.891Z,44.53
2023-03-02T00:50:06.267Z,45.90
2023-03-02T00:52:33.426Z,44.22
2023-03-02T00:54:59.974Z,46.63
2023-03-02T00:57:26.459Z,44.20
2023-03-02T00:59:53.574Z,44.35
2023-03-02T01:02:20.143Z,44.40
2023-03-02T01:04:47.220Z,40.10
2023-03-02T01:07:18.211Z,45.08
2023-03-02T01:09:45.330Z,45.05
2023-03-02T01:12:12.355Z,43.70
2023-03-02T01:14:41.454Z,48.47
2023-03-02T01:17:10.193Z,44.75
2023-03-02T01:19:37.862Z,46.95
2023-03-02T01:22:04.517Z,45.50
2023-03-02T01:24:31.048Z,43.67
2023-03-02T01:26:57.559Z,46.22
2023-03-02T01:29:24.053Z,44.88
2023-03-02T01:31:51.309Z,44.63
2023-03-02T01:34:17.885Z,41.25
2023-03-02T01:36:46.769Z,43.25
2023-03-02T01:39:13.787Z,44.28
2023-03-02T01:41:43.517Z,43.75
2023-03-02T01:44:48.234Z,44.22
2023-03-02T01:47:27.522Z,44.53
2023-03-02T01:50:01.620Z,46.03
2023-03-02T01:52:29.552Z,42.08
2023-03-02T01:54:58.127Z,44.60
2023-03-02T01:57:28.765Z,43.35
2023-03-02T01:59:59.717Z,42.25
2023-03-02T02:02:26.526Z,47.53
2023-03-02T02:04:55.032Z,45.47
2023-03-02T02:07:21.719Z,41.60
2023-03-02T02:09:50.290Z,45.70
2023-03-02T02:12:19.750Z,42.33
2023-03-02T02:14:47.191Z,42.25
2023-03-02T02:17:14.898Z,44.22
2023-03-02T02:20:13.728Z,43.28
2023-03-02T02:23:14.244Z,45.28
2023-03-02T02:25:52.640Z,43.00
2023-03-02T02:28:26.920Z,44.90
2023-03-02T02:31:24.723Z,46.33
2023-03-02T02:33:55.613Z,42.53
2023-03-02T02:36:26.408Z,46.97
2023-03-02T02:38:55.106Z,43.22
2023-03-02T02:41:25.070Z,44.95
2023-03-02T02:43:51.974Z,49.83
2023-03-02T02:46:18.744Z,44.97
2023-03-02T02:48:48.715Z,45.17
2023-03-02T02:51:20.361Z,45.05
2023-03-02T02:53:56.551Z,46.55
2023-03-02T02:56:26.614Z,47.25
2023-03-02T02:58:55.060Z,44.45
2023-03-02T03:01:23.341Z,47.38
2023-03-02T03:03:56.824Z,45.38
2023-03-02T03:06:33.237Z,44.85
2023-03-02T03:09:03.014Z,38.42
2023-03-02T03:11:31.609Z,44.17
2023-03-02T03:14:05.511Z,40.67
2023-03-02T03:16:33.293Z,44.17
2023-03-02T03:19:05.911Z,42.65
2023-03-02T03:21:32.709Z,47.95
2023-03-02T03:24:00.062Z,46.50
2023-03-02T03:26:26.579Z,52.20
2023-03-02T03:28:53.093Z,46.83
2023-03-02T03:31:19.661Z,44.85
2023-03-02T03:33:46.857Z,45.67
2023-03-02T03:36:13.637Z,44.55
2023-03-02T03:38:42.921Z,42.75
2023-03-02T03:41:09.454Z,44.45
2023-03-02T03:43:36.227Z,49.88
2023-03-02T03:46:02.810Z,49.33
2023-03-02T03:48:29.439Z,42.10
2023-03-02T03:50:55.935Z,47.15
2023-03-02T03:53:23.585Z,46.90
2023-03-02T03:55:50.076Z,44.97
2023-03-02T03:58:16.768Z,45.63
2023-03-02T04:00:43.318Z,47.35
2023-03-02T04:03:09.863Z,45.72
2023-03-02T04:05:36.360Z,48.05
2023-03-02T04:08:02.906Z,49.38
2023-03-02T04:10:29.526Z,45.95
2023-03-02T04:12:56.561Z,48.70
2023-03-02T04:15:23.421Z,41.78
2023-03-02T04:17:49.978Z,44.65
2023-03-02T04:20:17.933Z,48.55
2023-03-02T04:22:47.117Z,47.15
2023-03-02T04:25:15.161Z,47.90
2023-03-02T04:27:43.550Z,44.63
2023-03-02T04:30:11.514Z,44.42
2023-03-02T04:32:38.144Z,45.90
2023-03-02T04:35:05.222Z,46.28
2023-03-02T04:37:31.767Z,47.72
2023-03-02T04:39:58.396Z,49.20
2023-03-02T04:42:24.906Z,43.78
2023-03-02T04:44:51.891Z,46.78
2023-03-02T04:47:18.427Z,48.10
2023-03-02T04:49:45.245Z,45.90
2023-03-02T04:52:12.008Z,51.22
2023-03-02T04:54:38.553Z,46.22
2023-03-02T04:57:05.107Z,46.08
2023-03-02T04:59:31.626Z,47.38
2023-03-02T05:01:59.720Z,48.22
2023-03-02T05:04:27.900Z,48.10
2023-03-02T05:06:54.993Z,48.53
2023-03-02T05:09:21.706Z,47.10
2023-03-02T05:11:48.190Z,48.25
2023-03-02T05:14:17.242Z,46.97
2023-03-02T05:16:43.931Z,48.50
2023-03-02T05:19:11.696Z,47.38
2023-03-02T05:21:39.246Z,47.20
2023-03-02T05:24:06.118Z,50.53
2023-03-02T05:26:32.938Z,48.25
2023-03-02T05:28:59.721Z,46.70
2023-03-02T05:31:35.321Z,46.70
2023-03-02T05:34:03.450Z,48.22
2023-03-02T05:36:30.349Z,47.78
2023-03-02T05:38:56.982Z,46.95
2023-03-02T05:41:23.582Z,49.70
2023-03-02T05:43:50.179Z,46.97
2023-03-02T05:46:17.079Z,47.30
2023-03-02T05:48:43.786Z,47.53
2023-03-02T05:51:10.359Z,47.85
2023-03-02T05:53:37.190Z,47.05
2023-03-02T05:56:03.874Z,47.35
2023-03-02T05:58:30.350Z,49.58
2023-03-02T06:00:57.890Z,47.25
2023-03-02T06:03:24.436Z,47.25
2023-03-02T06:05:51.165Z,49.25
2023-03-02T06:08:21.146Z,46.63
2023-03-02T06:10:48.275Z,49.08
2023-03-02T06:13:14.856Z,44.33
2023-03-02T06:15:44.383Z,49.58
2023-03-02T06:18:10.955Z,47.08
2023-03-02T06:20:37.459Z,52.70
2023-03-02T06:23:03.954Z,47.35
2023-03-02T06:25:30.633Z,45.95
2023-03-02T06:27:57.592Z,52.33
2023-03-02T06:30:25.783Z,50.55
2023-03-02T06:32:52.435Z,48.72
2023-03-02T06:35:19.347Z,47.88
2023-03-02T06:37:45.951Z,47.20
2023-03-02T06:40:13.234Z,50.08
2023-03-02T06:42:40.809Z,48.83
2023-03-02T06:45:08.174Z,49.53
2023-03-02T06:47:34.669Z,49.60
2023-03-02T06:50:01.275Z,45.28
2023-03-02T06:52:28.090Z,48.47
2023-03-02T06:54:55.091Z,45.80
2023-03-02T06:57:21.610Z,47.72
2023-03-02T06:59:48.104Z,45.33
2023-03-02T07:02:14.632Z,54.88
2023-03-02T07:04:41.900Z,44.40
2023-03-02T07:07:09.546Z,48.03
2023-03-02T07:09:36.089Z,50.10
2023-03-02T07:12:02.569Z,45.08
2023-03-02T07:14:29.074Z,46.25
2023-03-02T07:16:55.613Z,47.47
2023-03-02T07:19:22.114Z,46.67
2023-03-02T07:21:48.641Z,49.38
2023-03-02T07:24:15.168Z,47.65
2023-03-02T07:26:41.765Z,50.85
2023-03-02T07:29:08.270Z,47.45
2023-03-02T07:31:35.096Z,47.35
2023-03-02T07:34:01.724Z,50.15
2023-03-02T07:36:28.283Z,48.65
2023-03-02T07:38:54.777Z,50.92
2023-03-02T07:41:21.355Z,51.50
2023-03-02T07:43:47.872Z,47.63
2023-03-02T07:46:14.430Z,45.90
2023-03-02T07:48:41.489Z,46.10
2023-03-02T07:51:07.987Z,47.67
2023-03-02T07:53:34.861Z,46.85
2023-03-02T07:56:06.546Z,48.05
2023-03-02T07:58:33.043Z,45.20
2023-03-02T08:00:59.656Z,49.35
2023-03-02T08:03:26.416Z,42.58
2023-03-02T08:05:52.883Z,49.65
2023-03-02T08:08:19.407Z,44.53
2023-03-02T08:10:45.908Z,45.58
2023-03-02T08:13:15.519Z,46.38
2023-03-02T08:15:42.030Z,47.70
2023-03-02T08:18:10.528Z,43.47
2023-03-02T08:20:40.141Z,43.75
2023-03-02T08:23:08.624Z,51.25
2023-03-02T08:25:35.139Z,45.40
2023-03-02T08:28:01.635Z,46.50
2023-03-02T08:30:28.242Z,45.63
2023-03-02T08:32:55.279Z,43.70
2023-03-02T08:35:21.946Z,44.60
2023-03-02T08:37:48.453Z,47.05
2023-03-02T08:40:17.036Z,44.60
2023-03-02T08:42:43.537Z,50.08
2023-03-02T08:45:10.253Z,45.35
2023-03-02T08:47:38.730Z,50.15
2023-03-02T08:50:05.860Z,46.97
2023-03-02T08:52:35.234Z,47.85
2023-03-02T08:55:03.742Z,51.78
2023-03-02T08:57:30.675Z,45.30
2023-03-02T08:59:57.294Z,47.53
2023-03-02T09:02:23.857Z,44.53
2023-03-02T09:04:50.412Z,47.05
2023-03-02T09:07:17.034Z,44.58
2023-03-02T09:09:43.817Z,49.85
2023-03-02T09:12:10.401Z,47.40
2023-03-02T09:14:36.965Z,47.45
2023-03-02T09:17:03.466Z,47.47
2023-03-02T09:19:30.000Z,43.38
2023-03-02T09:21:56.528Z,46.58
2023-03-02T09:24:23.055Z,49.03
2023-03-02T09:26:49.532Z,47.08
2023-03-02T09:29:16.021Z,47.90
2023-03-02T09:31:42.622Z,43.80
2023-03-02T09:34:09.698Z,50.05
2023-03-02T09:36:36.386Z,43.28
2023-03-02T09:39:02.962Z,44.42
2023-03-02T09:41:37.198Z,47.05
2023-03-02T09:44:25.619Z,40.58
2023-03-02T09:47:35.775Z,40.08
2023-03-02T09:50:17.103Z,47.33
2023-03-02T09:53:06.837Z,40.47
2023-03-02T09:55:36.374Z,41.70
2023-03-02T09:58:07.031Z,44.63
2023-03-02T10:00:39.372Z,48.72
2023-03-02T10:03:19.899Z,42.03
2023-03-02T10:05:48.837Z,44.50
2023-03-02T10:08:18.337Z,42.28
2023-03-02T10:10:53.271Z,44.60
2023-03-02T10:13:22.361Z,41.67
2023-03-02T10:15:57.881Z,46.63
2023-03-02T10:18:32.892Z,44.42
2023-03-02T10:21:16.485Z,45.97
2023-03-02T10:23:52.151Z,41.88
2023-03-02T10:26:24.744Z,45.88
2023-03-02T10:29:07.895Z,44.38
2023-03-02T10:31:34.387Z,43.67
2023-03-02T10:34:01.260Z,40.17
2023-03-02T10:36:36.032Z,41.22
2023-03-02T10:39:03.485Z,42.70
2023-03-02T10:41:36.540Z,40.92
2023-03-02T10:44:31.441Z,40.35
2023-03-02T10:46:58.022Z,43.67
2023-03-02T10:49:32.679Z,40.15
2023-03-02T10:52:03.032Z,41.42
2023-03-02T10:57:02.911Z,41.30
2023-03-02T10:59:39.429Z,38.85
2023-03-02T11:02:14.129Z,40.55
2023-03-02T11:04:40.844Z,42.35
2023-03-02T11:07:15.692Z,38.65
2023-03-02T11:09:44.756Z,40.97
2023-03-02T11:12:15.323Z,41.50
2023-03-02T11:14:41.836Z,40.95
2023-03-02T11:17:40.448Z,46.28
2023-03-02T11:20:15.178Z,40.58
2023-03-02T11:23:19.647Z,40.92
2023-03-02T11:25:53.145Z,38.80
2023-03-02T11:28:25.747Z,42.53
2023-03-02T11:30:53.894Z,41.38
2023-03-02T11:33:26.005Z,41.72
2023-03-02T11:35:59.308Z,40.42
2023-03-02T11:38:28.915Z,40.85
2023-03-02T11:41:14.191Z,41.67
2023-03-02T11:43:41.030Z,44.70
2023-03-02T11:46:21.657Z,41.72
2023-03-02T11:48:51.780Z,40.67
2023-03-02T11:51:23.696Z,43.33
2023-03-02T11:53:58.586Z,43.55
2023-03-02T11:56:26.790Z,42.55
2023-03-02T11:58:59.053Z,46.15
2023-03-02T12:01:26.972Z,40.70
2023-03-02T12:03:53.896Z,46.05
2023-03-02T12:06:20.296Z,42.85
2023-03-02T12:08:49.512Z,42.72
2023-03-02T12:11:19.102Z,42.28
2023-03-02T12:13:54.559Z,45.13
2023-03-02T12:16:37.238Z,45.30
2023-03-02T12:19:16.043Z,53.85
2023-03-02T12:21:56.635Z,46.88
2023-03-02T12:24:28.752Z,44.70
2023-03-02T12:27:01.295Z,44.25
2023-03-02T12:29:38.856Z,44.92
2023-03-02T12:32:23.699Z,43.38
2023-03-02T12:34:56.683Z,45.25
2023-03-02T12:37:32.061Z,53.30
2023-03-02T12:40:18.475Z,43.50
2023-03-02T12:42:53.953Z,45.92
2023-03-02T12:45:25.026Z,47.92
2023-03-02T12:48:00.897Z,47.38
2023-03-02T12:50:30.989Z,45.80
2023-03-02T12:53:05.573Z,45.30
2023-03-02T12:55:32.548Z,46.35
2023-03-02T12:58:01.882Z,44.28
2023-03-02T13:00:31.825Z,48.85
2023-03-02T13:02:59.770Z,49.40
2023-03-02T13:05:32.815Z,44.58
2023-03-02T13:08:02.110Z,51.08
2023-03-02T13:10:38.244Z,48.53
2023-03-02T13:13:14.979Z,42.13
2023-03-02T13:15:56.202Z,45.22
2023-03-02T13:18:24.682Z,43.67
2023-03-02T13:20:51.948Z,48.97
2023-03-02T13:23:19.202Z,46.53
2023-03-02T13:25:57.829Z,46.35
2023-03-02T13:28:29.626Z,45.70
2023-03-02T13:31:05.545Z,43.90
2023-03-02T13:33:33.920Z,45.92
2023-03-02T13:36:00.434Z,44.38
2023-03-02T13:38:31.499Z,44.97
2023-03-02T13:40:58.058Z,47.15
2023-03-02T13:43:34.704Z,47.88
2023-03-02T13:46:05.442Z,44.85
2023-03-02T13:48:32.485Z,46.42
2023-03-02T13:51:17.651Z,46.50
2023-03-02T13:53:52.031Z,44.45
2023-03-02T13:56:21.414Z,45.60
2023-03-02T13:58:49.066Z,43.25
2023-03-02T14:01:15.890Z,47.35
2023-03-02T14:03:42.537Z,43.22
2023-03-02T14:06:09.337Z,46.25
2023-03-02T14:08:35.913Z,45.05
2023-03-02T14:11:04.278Z,44.58
2023-03-02T14:13:37.540Z,41.05
2023-03-02T14:16:04.601Z,45.00
2023-03-02T14:18:37.717Z,46.60
2023-03-02T14:21:05.078Z,45.28
2023-03-02T14:23:33.927Z,45.63
2023-03-02T14:26:00.508Z,43.50
2023-03-02T14:28:33.908Z,44.20
2023-03-02T14:31:00.404Z,44.78
2023-03-02T14:33:27.165Z,44.60
2023-03-02T14:35:56.665Z,44.58
2023-03-02T14:38:25.013Z,47.40
2023-03-02T14:40:52.257Z,46.83
2023-03-02T14:43:18.881Z,47.08
2023-03-02T14:45:46.341Z,50.05
2023-03-02T14:48:13.051Z,45.50
2023-03-02T14:50:41.168Z,46.90
2023-03-02T14:53:12.852Z,45.75
2023-03-02T14:55:40.525Z,42.30
2023-03-02T14:58:13.092Z,41.03
2023-03-02T15:00:39.587Z,42.10
2023-03-02T15:03:06.241Z,42.45
2023-03-02T15:05:36.929Z,40.47
2023-03-02T15:08:03.539Z,44.20
2023-03-02T15:10:35.836Z,44.55
2023-03-02T15:13:04.465Z,43.60
2023-03-02T15:15:32.718Z,45.03
2023-03-02T15:17:59.200Z,44.35
2023-03-02T15:20:25.655Z,45.35
2023-03-02T15:22:52.598Z,45.03
2023-03-02T15:25:19.096Z,45.08
2023-03-02T15:27:45.733Z,45.30
2023-03-02T15:30:12.451Z,45.95
2023-03-02T15:32:39.064Z,43.03
2023-03-02T15:35:06.250Z,44.90
2023-03-02T15:37:35.297Z,42.60
2023-03-02T15:40:01.762Z,45.13
2023-03-02T15:42:31.387Z,44.42
2023-03-02T15:44:57.881Z,40.63
2023-03-02T15:47:24.578Z,44.28
2023-03-02T15:49:53.679Z,43.95
2023-03-02T15:52:21.329Z,41.60
2023-03-02T15:54:48.007Z,43.50
2023-03-02T15:57:14.549Z,44.53
2023-03-02T15:59:41.058Z,39.05
2023-03-02T16:02:07.563Z,43.15
2023-03-02T16:04:34.078Z,44.55
2023-03-02T16:07:01.002Z,41.33
2023-03-02T16:09:27.982Z,42.15
2023-03-02T16:11:54.537Z,46.05
2023-03-02T16:14:21.018Z,44.53
2023-03-02T16:16:48.184Z,44.90
2023-03-02T16:19:18.883Z,42.90
2023-03-02T16:21:48.669Z,41.92
2023-03-02T16:24:15.576Z,35.10
2023-03-02T16:26:42.667Z,42.97
2023-03-02T16:29:12.834Z,40.47
2023-03-02T16:31:41.395Z,42.95
2023-03-02T16:34:10.066Z,41.90
2023-03-02T16:36:38.796Z,40.90
2023-03-02T16:39:06.745Z,43.65
2023-03-02T16:41:34.004Z,44.25
2023-03-02T16:44:01.322Z,45.20
2023-03-02T16:46:30.866Z,41.65
2023-03-02T16:48:58.339Z,43.30
2023-03-02T16:51:25.107Z,40.67
2023-03-02T16:53:52.205Z,46.42
2023-03-02T16:56:18.912Z,45.92
2023-03-02T16:58:45.596Z,46.38
2023-03-02T17:01:15.809Z,44.97
2023-03-02T17:03:42.763Z,44.05
2023-03-02T17:06:10.597Z,45.08
2023-03-02T17:08:37.111Z,43.35
2023-03-02T17:11:03.766Z,43.28
2023-03-02T17:13:31.430Z,42.72
2023-03-02T17:15:58.522Z,48.83
2023-03-02T17:18:25.652Z,42.83
2023-03-02T17:20:54.172Z,47.25
2023-03-02T17:23:21.074Z,49.00
2023-03-02T17:25:49.514Z,42.70
2023-03-02T17:28:16.385Z,42.75
2023-03-02T17:30:43.508Z,42.50
2023-03-02T17:33:10.637Z,43.13
2023-03-02T17:35:37.612Z,41.67
2023-03-02T17:38:04.980Z,48.13
2023-03-02T17:40:32.248Z,48.00
2023-03-02T17:43:03.116Z,56.10
2023-03-02T17:45:30.248Z,52.20
2023-03-02T17:48:00.856Z,51.63
2023-03-02T17:50:28.886Z,51.85
2023-03-02T17:52:55.553Z,48.38
2023-03-02T17:55:22.658Z,54.75
2023-03-02T17:57:49.865Z,51.17
2023-03-02T18:00:20.028Z,50.63
2023-03-02T18:02:46.554Z,53.28
2023-03-02T18:05:14.158Z,55.67
2023-03-02T18:07:41.420Z,54.60
2023-03-02T18:10:08.556Z,54.55
2023-03-02T18:12:35.057Z,52.55
2023-03-02T18:15:01.695Z,53.97
2023-03-02T18:17:29.310Z,52.58
2023-03-02T18:19:56.397Z,52.53
2023-03-02T18:22:23.314Z,46.72
2023-03-02T18:24:49.918Z,48.40
2023-03-02T18:27:16.504Z,65.97
2023-03-02T18:29:43.092Z,65.60
2023-03-02T18:32:11.071Z,57.35
2023-03-02T18:34:37.788Z,56.75
2023-03-02T18:37:04.319Z,55.25
2023-03-02T18:39:30.840Z,54.85
2023-03-02T18:41:57.605Z,50.67
2023-03-02T18:44:24.145Z,52.97
2023-03-02T18:46:51.320Z,51.25
2023-03-02T18:49:20.154Z,58.67
2023-03-02T18:51:46.792Z,61.65
2023-03-02T18:54:14.713Z,56.38
2023-03-02T18:56:41.260Z,56.78
2023-03-02T18:59:08.054Z,59.50
2023-03-02T19:01:34.654Z,55.25
2023-03-02T19:04:01.526Z,56.40
2023-03-02T19:06:28.815Z,55.25
2023-03-02T19:08:55.378Z,51.83
2023-03-02T19:11:22.511Z,51.10
2023-03-02T19:13:50.170Z,50.65
2023-03-02T19:16:18.370Z,53.40
2023-03-02T19:18:45.169Z,58.22
2023-03-02T19:21:11.975Z,51.35
2023-03-02T19:23:39.154Z,55.60
2023-03-02T19:26:05.695Z,51.28
2023-03-02T19:28:32.220Z,55.60
2023-03-02T19:31:03.872Z,52.85
2023-03-02T19:33:30.384Z,50.90
2023-03-02T19:35:58.083Z,50.38
2023-03-02T19:38:25.052Z,49.35
2023-03-02T19:40:51.607Z,56.17
2023-03-02T19:43:21.705Z,57.08
2023-03-02T19:45:48.262Z,49.08
2023-03-02T19:48:14.778Z,57.15
2023-03-02T19:50:41.788Z,47.45
2023-03-02T19:53:08.315Z,52.67
2023-03-02T19:55:35.986Z,56.78
2023-03-02T19:58:02.705Z,59.00
2023-03-02T20:00:32.337Z,50.30
2023-03-02T20:03:00.313Z,55.70
2023-03-02T20:05:27.823Z,53.25
2023-03-02T20:07:54.790Z,55.83
2023-03-02T20:10:26.547Z,61.03
2023-03-02T20:12:53.654Z,56.58
2023-03-02T20:15:21.314Z,54.85
2023-03-02T20:17:48.299Z,59.45
2023-03-02T20:20:14.800Z,57.90
2023-03-02T20:22:41.513Z,53.28
2023-03-02T20:25:09.133Z,57.25
2023-03-02T20:27:35.660Z,55.00
2023-03-02T20:30:02.260Z,54.97
2023-03-02T20:32:29.166Z,59.15
2023-03-02T20:34:55.937Z,57.45
2023-03-02T20:37:22.477Z,62.30
2023-03-02T20:39:49.024Z,52.90
2023-03-02T20:42:15.496Z,56.88
2023-03-02T20:44:43.646Z,58.25
2023-03-02T20:47:13.407Z,52.78
2023-03-02T20:49:40.606Z,53.47
2023-03-02T20:52:08.525Z,55.17
2023-03-02T20:54:40.361Z,52.67
2023-03-02T20:57:08.033Z,57.78
2023-03-02T20:59:36.620Z,56.30
2023-03-02T21:02:03.340Z,54.88
2023-03-02T21:04:29.948Z,58.13
2023-03-02T21:06:56.500Z,57.67
2023-03-02T21:09:22.990Z,56.70
2023-03-02T21:11:49.492Z,54.92
2023-03-02T21:14:16.246Z,56.45
2023-03-02T21:16:43.760Z,58.50
2023-03-02T21:19:14.436Z,58.00
2023-03-02T21:21:42.398Z,61.15
2023-03-02T21:24:11.147Z,59.05
2023-03-02T21:26:37.763Z,66.82
2023-03-02T21:29:05.473Z,63.28
2023-03-02T21:31:32.429Z,57.35
2023-03-02T21:33:59.025Z,59.05
2023-03-02T21:36:25.664Z,60.00
2023-03-02T21:38:52.752Z,59.17
2023-03-02T21:41:19.398Z,57.03
2023-03-02T21:43:45.998Z,55.70
2023-03-02T21:46:14.434Z,57.38
2023-03-02T21:48:41.591Z,57.15
2023-03-02T21:51:11.109Z,59.75
2023-03-02T21:53:39.010Z,62.17
2023-03-02T21:56:09.492Z,60.75
2023-03-02T22:01:03.425Z,58.97
2023-03-02T22:03:29.921Z,59.42
2023-03-02T22:05:56.381Z,56.58
2023-03-02T22:08:23.250Z,63.83
2023-03-02T22:10:51.437Z,62.10
2023-03-02T22:13:24.118Z,63.58
2023-03-02T22:16:13.584Z,59.38
2023-03-02T22:18:46.181Z,60.50
2023-03-02T22:21:45.401Z,62.53
2023-03-02T22:24:11.912Z,60.97
2023-03-02T22:27:10.706Z,63.83
2023-03-02T22:29:45.716Z,62.78
2023-03-02T22:32:21.801Z,64.60
2023-03-02T22:34:56.548Z,63.58
2023-03-02T22:37:25.952Z,64.30
2023-03-02T22:39:55.890Z,60.03
2023-03-02T22:42:24.681Z,65.13
2023-03-02T22:45:01.737Z,66.07
2023-03-02T22:47:28.329Z,70.43
2023-03-02T22:50:11.641Z,65.43
2023-03-02T22:52:39.241Z,64.35
2023-03-02T22:55:44.141Z,63.30
2023-03-02T22:58:48.065Z,72.75
2023-03-02T23:01:20.786Z,63.50
2023-03-02T23:03:53.042Z,61.08
2023-03-02T23:06:30.091Z,62.53
2023-03-02T23:09:02.138Z,68.10
2023-03-02T23:11:32.250Z,75.60
2023-03-02T23:14:00.688Z,90.13
2023-03-02T23:16:29.010Z,81.82
2023-03-02T23:18:56.812Z,78.90
2023-03-02T23:21:37.471Z,73.75
2023-03-02T23:24:04.439Z,71.43
2023-03-02T23:26:30.975Z,82.07
2023-03-02T23:28:57.533Z,72.38
2023-03-02T23:31:24.465Z,75.22
2023-03-02T23:33:51.241Z,78.90
2023-03-02T23:36:17.737Z,81.03
2023-03-02T23:38:44.244Z,75.78
2023-03-02T23:41:10.772Z,75.80
2023-03-02T23:43:38.422Z,69.80
2023-03-02T23:46:05.593Z,80.18
2023-03-02T23:48:32.802Z,81.45
2023-03-02T23:50:59.686Z,88.88
2023-03-02T23:53:26.569Z,85.28
2023-03-02T23:55:54.542Z,83.68
2023-03-02T23:58:23.225Z,85.80
